sensor_id;sensor_type;location;lat;lon;timestamp;P1;durP1;ratioP1;P2;durP2;ratioP2
26253;SDS011;53339;51.378;0.094;2024-03-06T00:00:53;19.85;;;10.00;;
26253;SDS011;53339;51.378;0.094;2024-03-06T00:03:25;20.95;;;9.18;;
26253;SDS011;53339;51.378;0.094;2024-03-06T00:05:56;23.60;;;10.45;;
26253;SDS011;53339;51.378;0.094;2024-03-06T00:08:28;15.02;;;6.68;;
26253;SDS011;53339;51.378;0.094;2024-03-06T00:10:59;22.23;;;11.07;;
26253;SDS011;53339;51.378;0.094;2024-03-06T00:13:35;22.83;;;11.27;;
26253;SDS011;53339;51.378;0.094;2024-03-06T00:16:04;25.17;;;11.75;;
26253;SDS011;53339;51.378;0.094;2024-03-06T00:18:38;16.08;;;8.02;;
26253;SDS011;53339;51.378;0.094;2024-03-06T00:21:10;23.10;;;12.30;;
26253;SDS011;53339;51.378;0.094;2024-03-06T00:23:48;20.67;;;11.07;;
26253;SDS011;53339;51.378;0.094;2024-03-06T00:26:22;23.05;;;11.60;;
26253;SDS011;53339;51.378;0.094;2024-03-06T00:28:52;16.40;;;7.38;;
26253;SDS011;53339;51.378;0.094;2024-03-06T00:31:22;27.05;;;12.27;;
26253;SDS011;53339;51.378;0.094;2024-03-06T00:33:52;24.15;;;12.30;;
26253;SDS011;53339;51.378;0.094;2024-03-06T00:36:26;27.65;;;12.63;;
26253;SDS011;53339;51.378;0.094;2024-03-06T00:39:01;15.88;;;7.80;;
26253;SDS011;53339;51.378;0.094;2024-03-06T00:41:36;30.75;;;12.52;;
26253;SDS011;53339;51.378;0.094;2024-03-06T00:44:06;25.30;;;12.25;;
26253;SDS011;53339;51.378;0.094;2024-03-06T00:46:38;24.50;;;12.25;;
26253;SDS011;53339;51.378;0.094;2024-03-06T00:49:08;15.25;;;7.90;;
26253;SDS011;53339;51.378;0.094;2024-03-06T00:51:38;26.38;;;11.63;;
26253;SDS011;53339;51.378;0.094;2024-03-06T00:54:21;21.25;;;10.30;;
26253;SDS011;53339;51.378;0.094;2024-03-06T00:56:51;23.23;;;10.68;;
26253;SDS011;53339;51.378;0.094;2024-03-06T00:59:26;15.27;;;8.07;;
26253;SDS011;53339;51.378;0.094;2024-03-06T01:01:58;25.42;;;11.48;;
26253;SDS011;53339;51.378;0.094;2024-03-06T01:04:32;23.20;;;11.55;;
26253;SDS011;53339;51.378;0.094;2024-03-06T01:07:03;24.60;;;10.60;;
26253;SDS011;53339;51.378;0.094;2024-03-06T01:09:34;15.38;;;9.23;;
26253;SDS011;53339;51.378;0.094;2024-03-06T01:12:05;25.73;;;11.50;;
26253;SDS011;53339;51.378;0.094;2024-03-06T01:14:37;26.27;;;11.40;;
26253;SDS011;53339;51.378;0.094;2024-03-06T01:17:14;27.27;;;12.88;;
26253;SDS011;53339;51.378;0.094;2024-03-06T01:19:45;21.88;;;8.93;;
26253;SDS011;53339;51.378;0.094;2024-03-06T01:22:14;25.85;;;11.38;;
26253;SDS011;53339;51.378;0.094;2024-03-06T01:24:44;27.10;;;12.63;;
26253;SDS011;53339;51.378;0.094;2024-03-06T01:27:18;28.08;;;10.68;;
26253;SDS011;53339;51.378;0.094;2024-03-06T01:29:48;12.55;;;7.32;;
26253;SDS011;53339;51.378;0.094;2024-03-06T01:32:17;26.05;;;12.10;;
26253;SDS011;53339;51.378;0.094;2024-03-06T01:34:50;26.00;;;10.50;;
26253;SDS011;53339;51.378;0.094;2024-03-06T01:37:21;28.65;;;12.23;;
26253;SDS011;53339;51.378;0.094;2024-03-06T01:39:49;26.05;;;10.77;;
26253;SDS011;53339;51.378;0.094;2024-03-06T01:42:24;28.50;;;10.75;;
26253;SDS011;53339;51.378;0.094;2024-03-06T01:44:59;24.38;;;10.93;;
26253;SDS011;53339;51.378;0.094;2024-03-06T01:47:33;23.83;;;10.27;;
26253;SDS011;53339;51.378;0.094;2024-03-06T01:50:03;18.08;;;8.68;;
26253;SDS011;53339;51.378;0.094;2024-03-06T01:52:39;20.88;;;10.25;;
26253;SDS011;53339;51.378;0.094;2024-03-06T01:55:12;24.10;;;11.82;;
26253;SDS011;53339;51.378;0.094;2024-03-06T01:57:49;24.25;;;11.63;;
26253;SDS011;53339;51.378;0.094;2024-03-06T02:00:21;9.98;;;6.28;;
26253;SDS011;53339;51.378;0.094;2024-03-06T02:03:03;23.70;;;11.30;;
26253;SDS011;53339;51.378;0.094;2024-03-06T02:05:33;21.27;;;9.75;;
26253;SDS011;53339;51.378;0.094;2024-03-06T02:08:09;25.52;;;11.40;;
26253;SDS011;53339;51.378;0.094;2024-03-06T02:10:40;12.43;;;6.18;;
26253;SDS011;53339;51.378;0.094;2024-03-06T02:13:13;23.75;;;11.20;;
26253;SDS011;53339;51.378;0.094;2024-03-06T02:15:47;24.30;;;11.70;;
26253;SDS011;53339;51.378;0.094;2024-03-06T02:18:19;22.67;;;11.30;;
26253;SDS011;53339;51.378;0.094;2024-03-06T02:20:51;13.65;;;8.18;;
26253;SDS011;53339;51.378;0.094;2024-03-06T02:23:23;21.70;;;10.63;;
26253;SDS011;53339;51.378;0.094;2024-03-06T02:25:55;21.23;;;10.88;;
26253;SDS011;53339;51.378;0.094;2024-03-06T02:28:30;23.25;;;10.50;;
26253;SDS011;53339;51.378;0.094;2024-03-06T02:31:08;26.50;;;12.32;;
26253;SDS011;53339;51.378;0.094;2024-03-06T02:33:39;24.58;;;10.13;;
26253;SDS011;53339;51.378;0.094;2024-03-06T02:36:08;28.90;;;11.23;;
26253;SDS011;53339;51.378;0.094;2024-03-06T02:38:39;23.25;;;10.18;;
26253;SDS011;53339;51.378;0.094;2024-03-06T02:41:09;24.55;;;9.35;;
26253;SDS011;53339;51.378;0.094;2024-03-06T02:43:42;25.15;;;10.88;;
26253;SDS011;53339;51.378;0.094;2024-03-06T02:46:13;26.92;;;10.10;;
26253;SDS011;53339;51.378;0.094;2024-03-06T02:48:48;25.45;;;12.05;;
26253;SDS011;53339;51.378;0.094;2024-03-06T02:51:19;21.77;;;8.75;;
26253;SDS011;53339;51.378;0.094;2024-03-06T02:53:57;30.35;;;12.45;;
26253;SDS011;53339;51.378;0.094;2024-03-06T02:56:30;25.00;;;11.88;;
26253;SDS011;53339;51.378;0.094;2024-03-06T02:59:04;24.42;;;11.10;;
26253;SDS011;53339;51.378;0.094;2024-03-06T03:01:38;21.63;;;9.07;;
26253;SDS011;53339;51.378;0.094;2024-03-06T03:06:38;25.95;;;10.43;;
26253;SDS011;53339;51.378;0.094;2024-03-06T03:09:14;28.83;;;12.57;;
26253;SDS011;53339;51.378;0.094;2024-03-06T03:11:43;29.90;;;13.95;;
26253;SDS011;53339;51.378;0.094;2024-03-06T03:14:15;30.60;;;12.93;;
26253;SDS011;53339;51.378;0.094;2024-03-06T03:16:46;30.42;;;13.63;;
26253;SDS011;53339;51.378;0.094;2024-03-06T03:19:15;27.90;;;11.48;;
26253;SDS011;53339;51.378;0.094;2024-03-06T03:21:44;17.83;;;6.88;;
26253;SDS011;53339;51.378;0.094;2024-03-06T03:24:18;27.42;;;12.02;;
26253;SDS011;53339;51.378;0.094;2024-03-06T03:26:52;26.50;;;12.85;;
26253;SDS011;53339;51.378;0.094;2024-03-06T03:29:21;28.50;;;11.40;;
26253;SDS011;53339;51.378;0.094;2024-03-06T03:31:53;26.00;;;11.98;;
26253;SDS011;53339;51.378;0.094;2024-03-06T03:34:22;23.55;;;11.63;;
26253;SDS011;53339;51.378;0.094;2024-03-06T03:36:54;25.98;;;12.85;;
26253;SDS011;53339;51.378;0.094;2024-03-06T03:41:53;14.18;;;7.28;;
26253;SDS011;53339;51.378;0.094;2024-03-06T03:44:29;24.90;;;11.15;;
26253;SDS011;53339;51.378;0.094;2024-03-06T03:47:00;28.13;;;12.65;;
26253;SDS011;53339;51.378;0.094;2024-03-06T03:49:35;23.73;;;10.75;;
26253;SDS011;53339;51.378;0.094;2024-03-06T03:52:06;13.02;;;8.63;;
26253;SDS011;53339;51.378;0.094;2024-03-06T03:54:39;22.83;;;9.85;;
26253;SDS011;53339;51.378;0.094;2024-03-06T03:57:11;23.95;;;10.13;;
26253;SDS011;53339;51.378;0.094;2024-03-06T03:59:43;24.73;;;10.73;;
26253;SDS011;53339;51.378;0.094;2024-03-06T04:02:14;18.25;;;9.65;;
26253;SDS011;53339;51.378;0.094;2024-03-06T04:04:45;21.38;;;9.50;;
26253;SDS011;53339;51.378;0.094;2024-03-06T04:07:17;30.38;;;13.20;;
26253;SDS011;53339;51.378;0.094;2024-03-06T04:09:51;33.10;;;13.02;;
26253;SDS011;53339;51.378;0.094;2024-03-06T04:12:22;29.52;;;11.80;;
26253;SDS011;53339;51.378;0.094;2024-03-06T04:17:22;33.72;;;13.80;;
26253;SDS011;53339;51.378;0.094;2024-03-06T04:19:53;32.28;;;11.52;;
26253;SDS011;53339;51.378;0.094;2024-03-06T04:22:24;25.25;;;9.73;;
26253;SDS011;53339;51.378;0.094;2024-03-06T04:24:55;25.83;;;10.60;;
26253;SDS011;53339;51.378;0.094;2024-03-06T04:27:30;37.03;;;14.00;;
26253;SDS011;53339;51.378;0.094;2024-03-06T04:29:59;35.22;;;15.38;;
26253;SDS011;53339;51.378;0.094;2024-03-06T04:32:31;29.77;;;13.68;;
26253;SDS011;53339;51.378;0.094;2024-03-06T04:35:03;21.65;;;9.93;;
26253;SDS011;53339;51.378;0.094;2024-03-06T04:37:35;38.22;;;15.13;;
26253;SDS011;53339;51.378;0.094;2024-03-06T04:40:04;32.30;;;14.93;;
26253;SDS011;53339;51.378;0.094;2024-03-06T04:42:39;32.92;;;10.75;;
26253;SDS011;53339;51.378;0.094;2024-03-06T04:45:11;28.48;;;11.88;;
26253;SDS011;53339;51.378;0.094;2024-03-06T04:47:46;40.33;;;17.10;;
26253;SDS011;53339;51.378;0.094;2024-03-06T04:50:18;32.15;;;13.93;;
26253;SDS011;53339;51.378;0.094;2024-03-06T04:52:49;27.63;;;12.32;;
26253;SDS011;53339;51.378;0.094;2024-03-06T04:55:21;28.67;;;11.55;;
26253;SDS011;53339;51.378;0.094;2024-03-06T04:57:55;35.33;;;14.30;;
26253;SDS011;53339;51.378;0.094;2024-03-06T05:00:27;38.40;;;15.25;;
26253;SDS011;53339;51.378;0.094;2024-03-06T05:02:59;26.13;;;10.93;;
26253;SDS011;53339;51.378;0.094;2024-03-06T05:05:46;37.85;;;14.95;;
26253;SDS011;53339;51.378;0.094;2024-03-06T05:08:33;39.65;;;14.20;;
26253;SDS011;53339;51.378;0.094;2024-03-06T05:11:20;43.42;;;13.23;;
26253;SDS011;53339;51.378;0.094;2024-03-06T05:14:07;18.65;;;7.45;;
26253;SDS011;53339;51.378;0.094;2024-03-06T05:16:54;37.72;;;15.18;;
26253;SDS011;53339;51.378;0.094;2024-03-06T05:19:42;37.95;;;14.63;;
26253;SDS011;53339;51.378;0.094;2024-03-06T05:22:36;39.90;;;14.48;;
26253;SDS011;53339;51.378;0.094;2024-03-06T05:25:24;22.45;;;10.40;;
26253;SDS011;53339;51.378;0.094;2024-03-06T05:28:12;39.95;;;14.63;;
26253;SDS011;53339;51.378;0.094;2024-03-06T05:31:00;39.00;;;15.35;;
26253;SDS011;53339;51.378;0.094;2024-03-06T05:34:01;14.57;;;7.70;;
26253;SDS011;53339;51.378;0.094;2024-03-06T05:36:50;32.72;;;13.13;;
26253;SDS011;53339;51.378;0.094;2024-03-06T05:39:38;42.15;;;16.00;;
26253;SDS011;53339;51.378;0.094;2024-03-06T05:42:28;37.97;;;15.70;;
26253;SDS011;53339;51.378;0.094;2024-03-06T05:45:17;17.23;;;10.30;;
26253;SDS011;53339;51.378;0.094;2024-03-06T05:48:08;36.92;;;14.27;;
26253;SDS011;53339;51.378;0.094;2024-03-06T05:50:55;43.55;;;15.75;;
26253;SDS011;53339;51.378;0.094;2024-03-06T05:53:42;24.88;;;10.13;;
26253;SDS011;53339;51.378;0.094;2024-03-06T05:56:30;24.90;;;11.88;;
26253;SDS011;53339;51.378;0.094;2024-03-06T05:59:18;42.00;;;14.35;;
26253;SDS011;53339;51.378;0.094;2024-03-06T06:04:21;28.65;;;9.63;;
26253;SDS011;53339;51.378;0.094;2024-03-06T06:06:53;33.50;;;12.25;;
26253;SDS011;53339;51.378;0.094;2024-03-06T06:09:26;53.05;;;16.50;;
26253;SDS011;53339;51.378;0.094;2024-03-06T06:11:58;44.47;;;15.38;;
26253;SDS011;53339;51.378;0.094;2024-03-06T06:14:29;57.17;;;17.38;;
26253;SDS011;53339;51.378;0.094;2024-03-06T06:17:02;40.17;;;16.77;;
26253;SDS011;53339;51.378;0.094;2024-03-06T06:19:36;31.17;;;12.65;;
26253;SDS011;53339;51.378;0.094;2024-03-06T06:22:07;55.45;;;18.75;;
26253;SDS011;53339;51.378;0.094;2024-03-06T06:24:40;54.80;;;18.00;;
26253;SDS011;53339;51.378;0.094;2024-03-06T06:27:15;39.58;;;11.88;;
26253;SDS011;53339;51.378;0.094;2024-03-06T06:29:48;45.35;;;16.33;;
26253;SDS011;53339;51.378;0.094;2024-03-06T06:32:23;47.25;;;18.40;;
26253;SDS011;53339;51.378;0.094;2024-03-06T06:34:54;42.25;;;15.00;;
26253;SDS011;53339;51.378;0.094;2024-03-06T06:37:26;27.13;;;11.10;;
26253;SDS011;53339;51.378;0.094;2024-03-06T06:39:55;41.55;;;15.13;;
26253;SDS011;53339;51.378;0.094;2024-03-06T06:42:25;40.28;;;14.80;;
26253;SDS011;53339;51.378;0.094;2024-03-06T06:44:56;26.35;;;11.88;;
26253;SDS011;53339;51.378;0.094;2024-03-06T06:47:30;36.75;;;13.32;;
26253;SDS011;53339;51.378;0.094;2024-03-06T06:50:01;37.58;;;12.98;;
26253;SDS011;53339;51.378;0.094;2024-03-06T06:52:38;37.75;;;14.23;;
26253;SDS011;53339;51.378;0.094;2024-03-06T06:55:08;46.65;;;17.38;;
26253;SDS011;53339;51.378;0.094;2024-03-06T06:57:40;33.38;;;12.25;;
26253;SDS011;53339;51.378;0.094;2024-03-06T07:00:12;36.83;;;13.13;;
26253;SDS011;53339;51.378;0.094;2024-03-06T07:02:44;37.70;;;15.32;;
26253;SDS011;53339;51.378;0.094;2024-03-06T07:05:15;49.72;;;16.02;;
26253;SDS011;53339;51.378;0.094;2024-03-06T07:07:47;40.45;;;15.88;;
26253;SDS011;53339;51.378;0.094;2024-03-06T07:10:19;53.30;;;20.33;;
26253;SDS011;53339;51.378;0.094;2024-03-06T07:12:53;50.70;;;19.35;;
26253;SDS011;53339;51.378;0.094;2024-03-06T07:15:24;52.03;;;18.23;;
26253;SDS011;53339;51.378;0.094;2024-03-06T07:17:56;34.28;;;13.35;;
26253;SDS011;53339;51.378;0.094;2024-03-06T07:20:26;50.17;;;17.02;;
26253;SDS011;53339;51.378;0.094;2024-03-06T07:23:00;53.30;;;17.17;;
26253;SDS011;53339;51.378;0.094;2024-03-06T07:25:31;27.33;;;12.07;;
26253;SDS011;53339;51.378;0.094;2024-03-06T07:28:01;31.73;;;13.48;;
26253;SDS011;53339;51.378;0.094;2024-03-06T07:30:32;54.67;;;18.10;;
26253;SDS011;53339;51.378;0.094;2024-03-06T07:33:06;49.67;;;17.40;;
26253;SDS011;53339;51.378;0.094;2024-03-06T07:35:38;51.45;;;18.85;;
26253;SDS011;53339;51.378;0.094;2024-03-06T07:38:11;38.95;;;12.93;;
26253;SDS011;53339;51.378;0.094;2024-03-06T07:40:43;54.20;;;17.42;;
26253;SDS011;53339;51.378;0.094;2024-03-06T07:43:17;53.15;;;16.75;;
26253;SDS011;53339;51.378;0.094;2024-03-06T07:45:53;53.00;;;18.60;;
26253;SDS011;53339;51.378;0.094;2024-03-06T07:48:27;39.50;;;16.92;;
26253;SDS011;53339;51.378;0.094;2024-03-06T07:50:57;62.72;;;18.13;;
26253;SDS011;53339;51.378;0.094;2024-03-06T07:53:28;48.63;;;16.38;;
26253;SDS011;53339;51.378;0.094;2024-03-06T07:55:59;55.88;;;17.77;;
26253;SDS011;53339;51.378;0.094;2024-03-06T07:58:30;62.28;;;21.35;;
26253;SDS011;53339;51.378;0.094;2024-03-06T08:01:03;60.58;;;20.65;;
26253;SDS011;53339;51.378;0.094;2024-03-06T08:03:39;54.30;;;18.08;;
26253;SDS011;53339;51.378;0.094;2024-03-06T08:06:13;61.40;;;17.90;;
26253;SDS011;53339;51.378;0.094;2024-03-06T08:08:47;69.65;;;20.17;;
26253;SDS011;53339;51.378;0.094;2024-03-06T08:11:19;63.22;;;19.48;;
26253;SDS011;53339;51.378;0.094;2024-03-06T08:13:57;65.13;;;21.25;;
26253;SDS011;53339;51.378;0.094;2024-03-06T08:16:29;62.05;;;18.73;;
26253;SDS011;53339;51.378;0.094;2024-03-06T08:19:05;65.53;;;21.33;;
26253;SDS011;53339;51.378;0.094;2024-03-06T08:21:37;84.22;;;20.98;;
26253;SDS011;53339;51.378;0.094;2024-03-06T08:24:08;65.40;;;18.65;;
26253;SDS011;53339;51.378;0.094;2024-03-06T08:26:40;73.38;;;20.77;;
26253;SDS011;53339;51.378;0.094;2024-03-06T08:29:11;66.85;;;18.52;;
26253;SDS011;53339;51.378;0.094;2024-03-06T08:31:43;73.07;;;21.10;;
26253;SDS011;53339;51.378;0.094;2024-03-06T08:34:12;65.35;;;19.38;;
26253;SDS011;53339;51.378;0.094;2024-03-06T08:36:44;63.25;;;18.60;;
26253;SDS011;53339;51.378;0.094;2024-03-06T08:39:18;63.70;;;17.40;;
26253;SDS011;53339;51.378;0.094;2024-03-06T08:41:49;60.53;;;18.83;;
26253;SDS011;53339;51.378;0.094;2024-03-06T08:46:53;63.28;;;17.30;;
26253;SDS011;53339;51.378;0.094;2024-03-06T08:49:24;56.60;;;18.05;;
26253;SDS011;53339;51.378;0.094;2024-03-06T08:51:55;72.97;;;21.80;;
26253;SDS011;53339;51.378;0.094;2024-03-06T08:54:29;53.38;;;17.63;;
26253;SDS011;53339;51.378;0.094;2024-03-06T08:57:03;61.25;;;18.35;;
26253;SDS011;53339;51.378;0.094;2024-03-06T08:59:34;58.75;;;18.20;;
26253;SDS011;53339;51.378;0.094;2024-03-06T09:02:15;63.25;;;16.42;;
26253;SDS011;53339;51.378;0.094;2024-03-06T09:04:48;52.88;;;16.42;;
26253;SDS011;53339;51.378;0.094;2024-03-06T09:07:20;47.38;;;15.05;;
26253;SDS011;53339;51.378;0.094;2024-03-06T09:09:53;56.42;;;17.25;;
26253;SDS011;53339;51.378;0.094;2024-03-06T09:12:24;40.63;;;14.35;;
26253;SDS011;53339;51.378;0.094;2024-03-06T09:15:00;41.10;;;13.88;;
26253;SDS011;53339;51.378;0.094;2024-03-06T09:17:35;37.70;;;13.48;;
26253;SDS011;53339;51.378;0.094;2024-03-06T09:20:04;36.60;;;13.85;;
26253;SDS011;53339;51.378;0.094;2024-03-06T09:22:42;30.58;;;12.93;;
26253;SDS011;53339;51.378;0.094;2024-03-06T09:27:50;42.50;;;14.43;;
26253;SDS011;53339;51.378;0.094;2024-03-06T09:30:21;39.75;;;12.82;;
26253;SDS011;53339;51.378;0.094;2024-03-06T09:32:52;35.97;;;13.30;;
26253;SDS011;53339;51.378;0.094;2024-03-06T09:35:26;38.03;;;14.35;;
26253;SDS011;53339;51.378;0.094;2024-03-06T09:37:56;41.20;;;13.70;;
26253;SDS011;53339;51.378;0.094;2024-03-06T09:40:30;33.90;;;12.73;;
26253;SDS011;53339;51.378;0.094;2024-03-06T09:43:04;39.83;;;14.32;;
26253;SDS011;53339;51.378;0.094;2024-03-06T09:45:38;38.75;;;13.75;;
26253;SDS011;53339;51.378;0.094;2024-03-06T09:48:11;37.53;;;13.05;;
26253;SDS011;53339;51.378;0.094;2024-03-06T09:50:43;41.05;;;14.30;;
26253;SDS011;53339;51.378;0.094;2024-03-06T09:53:16;41.80;;;15.13;;
26253;SDS011;53339;51.378;0.094;2024-03-06T09:55:46;44.60;;;13.43;;
26253;SDS011;53339;51.378;0.094;2024-03-06T09:58:17;42.83;;;16.75;;
26253;SDS011;53339;51.378;0.094;2024-03-06T10:00:53;39.30;;;14.73;;
26253;SDS011;53339;51.378;0.094;2024-03-06T10:03:25;39.03;;;13.18;;
26253;SDS011;53339;51.378;0.094;2024-03-06T10:05:56;40.65;;;14.38;;
26253;SDS011;53339;51.378;0.094;2024-03-06T10:08:30;38.55;;;13.65;;
26253;SDS011;53339;51.378;0.094;2024-03-06T10:11:00;28.75;;;11.45;;
26253;SDS011;53339;51.378;0.094;2024-03-06T10:13:34;42.28;;;13.05;;
26253;SDS011;53339;51.378;0.094;2024-03-06T10:16:06;40.35;;;12.40;;
26253;SDS011;53339;51.378;0.094;2024-03-06T10:18:41;36.30;;;14.02;;
26253;SDS011;53339;51.378;0.094;2024-03-06T10:21:13;34.00;;;11.48;;
26253;SDS011;53339;51.378;0.094;2024-03-06T10:23:47;36.53;;;12.43;;
26253;SDS011;53339;51.378;0.094;2024-03-06T10:26:17;32.00;;;12.35;;
26253;SDS011;53339;51.378;0.094;2024-03-06T10:28:50;39.92;;;13.80;;
26253;SDS011;53339;51.378;0.094;2024-03-06T10:31:30;35.85;;;14.60;;
26253;SDS011;53339;51.378;0.094;2024-03-06T10:34:02;32.33;;;12.27;;
26253;SDS011;53339;51.378;0.094;2024-03-06T10:36:33;35.90;;;12.50;;
26253;SDS011;53339;51.378;0.094;2024-03-06T10:39:06;38.08;;;13.60;;
26253;SDS011;53339;51.378;0.094;2024-03-06T10:41:40;31.88;;;13.82;;
26253;SDS011;53339;51.378;0.094;2024-03-06T10:44:20;35.03;;;13.38;;
26253;SDS011;53339;51.378;0.094;2024-03-06T10:49:29;27.55;;;10.80;;
26253;SDS011;53339;51.378;0.094;2024-03-06T10:52:01;31.17;;;11.38;;
26253;SDS011;53339;51.378;0.094;2024-03-06T10:54:35;30.73;;;12.38;;
26253;SDS011;53339;51.378;0.094;2024-03-06T10:57:11;35.50;;;13.23;;
26253;SDS011;53339;51.378;0.094;2024-03-06T10:59:47;31.92;;;12.70;;
26253;SDS011;53339;51.378;0.094;2024-03-06T11:02:20;30.92;;;12.30;;
26253;SDS011;53339;51.378;0.094;2024-03-06T11:04:53;29.95;;;11.90;;
26253;SDS011;53339;51.378;0.094;2024-03-06T11:07:25;33.72;;;12.45;;
26253;SDS011;53339;51.378;0.094;2024-03-06T11:09:58;31.05;;;10.90;;
26253;SDS011;53339;51.378;0.094;2024-03-06T11:12:36;30.08;;;11.55;;
26253;SDS011;53339;51.378;0.094;2024-03-06T11:15:15;26.17;;;11.55;;
26253;SDS011;53339;51.378;0.094;2024-03-06T11:17:47;30.95;;;12.18;;
26253;SDS011;53339;51.378;0.094;2024-03-06T11:20:19;29.40;;;12.35;;
26253;SDS011;53339;51.378;0.094;2024-03-06T11:28:37;24.20;;;9.57;;
26253;SDS011;53339;51.378;0.094;2024-03-06T11:31:08;28.40;;;10.32;;
26253;SDS011;53339;51.378;0.094;2024-03-06T11:33:45;22.52;;;9.27;;
26253;SDS011;53339;51.378;0.094;2024-03-06T11:36:21;20.42;;;9.18;;
26253;SDS011;53339;51.378;0.094;2024-03-06T11:38:58;25.48;;;9.70;;
26253;SDS011;53339;51.378;0.094;2024-03-06T11:41:46;23.02;;;8.65;;
26253;SDS011;53339;51.378;0.094;2024-03-06T11:44:24;28.60;;;10.55;;
26253;SDS011;53339;51.378;0.094;2024-03-06T11:47:00;27.23;;;10.35;;
26253;SDS011;53339;51.378;0.094;2024-03-06T11:49:38;29.80;;;9.88;;
26253;SDS011;53339;51.378;0.094;2024-03-06T11:52:09;26.42;;;10.10;;
26253;SDS011;53339;51.378;0.094;2024-03-06T11:54:40;22.08;;;9.13;;
26253;SDS011;53339;51.378;0.094;2024-03-06T11:57:11;22.25;;;10.20;;
26253;SDS011;53339;51.378;0.094;2024-03-06T11:59:48;29.73;;;10.23;;
26253;SDS011;53339;51.378;0.094;2024-03-06T12:02:20;27.65;;;10.32;;
26253;SDS011;53339;51.378;0.094;2024-03-06T12:04:53;26.13;;;10.77;;
26253;SDS011;53339;51.378;0.094;2024-03-06T12:07:30;25.75;;;10.88;;
26253;SDS011;53339;51.378;0.094;2024-03-06T12:10:03;22.60;;;9.38;;
26253;SDS011;53339;51.378;0.094;2024-03-06T12:12:36;23.67;;;8.95;;
26253;SDS011;53339;51.378;0.094;2024-03-06T12:15:05;24.13;;;9.77;;
26253;SDS011;53339;51.378;0.094;2024-03-06T12:17:45;22.65;;;8.32;;
26253;SDS011;53339;51.378;0.094;2024-03-06T12:20:23;22.30;;;8.80;;
26253;SDS011;53339;51.378;0.094;2024-03-06T12:22:57;21.65;;;8.95;;
26253;SDS011;53339;51.378;0.094;2024-03-06T12:25:28;23.55;;;10.27;;
26253;SDS011;53339;51.378;0.094;2024-03-06T12:28:06;21.98;;;9.70;;
26253;SDS011;53339;51.378;0.094;2024-03-06T12:30:44;21.95;;;8.38;;
26253;SDS011;53339;51.378;0.094;2024-03-06T12:33:17;20.85;;;8.52;;
26253;SDS011;53339;51.378;0.094;2024-03-06T12:36:00;20.83;;;10.00;;
26253;SDS011;53339;51.378;0.094;2024-03-06T12:38:42;20.40;;;9.02;;
26253;SDS011;53339;51.378;0.094;2024-03-06T12:41:13;20.92;;;7.82;;
26253;SDS011;53339;51.378;0.094;2024-03-06T12:43:44;19.23;;;8.73;;
26253;SDS011;53339;51.378;0.094;2024-03-06T12:46:14;16.33;;;7.40;;
26253;SDS011;53339;51.378;0.094;2024-03-06T12:48:49;13.32;;;6.57;;
26253;SDS011;53339;51.378;0.094;2024-03-06T12:51:20;16.23;;;6.40;;
26253;SDS011;53339;51.378;0.094;2024-03-06T12:53:54;16.35;;;7.70;;
26253;SDS011;53339;51.378;0.094;2024-03-06T12:56:28;15.10;;;7.10;;
26253;SDS011;53339;51.378;0.094;2024-03-06T12:58:59;15.52;;;5.95;;
26253;SDS011;53339;51.378;0.094;2024-03-06T13:01:30;13.60;;;6.25;;
26253;SDS011;53339;51.378;0.094;2024-03-06T13:04:02;13.68;;;7.03;;
26253;SDS011;53339;51.378;0.094;2024-03-06T13:06:36;12.90;;;6.60;;
26253;SDS011;53339;51.378;0.094;2024-03-06T13:09:10;13.82;;;5.55;;
26253;SDS011;53339;51.378;0.094;2024-03-06T13:11:45;13.55;;;6.10;;
26253;SDS011;53339;51.378;0.094;2024-03-06T13:14:18;12.75;;;7.00;;
26253;SDS011;53339;51.378;0.094;2024-03-06T13:16:49;15.10;;;5.65;;
26253;SDS011;53339;51.378;0.094;2024-03-06T13:19:20;14.10;;;7.03;;
26253;SDS011;53339;51.378;0.094;2024-03-06T13:21:51;17.25;;;7.75;;
26253;SDS011;53339;51.378;0.094;2024-03-06T13:24:20;18.08;;;7.63;;
26253;SDS011;53339;51.378;0.094;2024-03-06T13:26:52;19.77;;;8.55;;
26253;SDS011;53339;51.378;0.094;2024-03-06T13:29:26;19.15;;;8.18;;
26253;SDS011;53339;51.378;0.094;2024-03-06T13:32:00;19.63;;;8.70;;
26253;SDS011;53339;51.378;0.094;2024-03-06T13:34:31;24.55;;;10.10;;
26253;SDS011;53339;51.378;0.094;2024-03-06T13:37:02;25.13;;;9.82;;
26253;SDS011;53339;51.378;0.094;2024-03-06T13:39:32;20.25;;;9.25;;
26253;SDS011;53339;51.378;0.094;2024-03-06T13:42:03;22.70;;;9.25;;
26253;SDS011;53339;51.378;0.094;2024-03-06T13:44:35;24.55;;;9.88;;
26253;SDS011;53339;51.378;0.094;2024-03-06T13:47:07;21.45;;;8.95;;
26253;SDS011;53339;51.378;0.094;2024-03-06T13:49:49;19.88;;;8.90;;
26253;SDS011;53339;51.378;0.094;2024-03-06T13:52:20;25.23;;;9.13;;
26253;SDS011;53339;51.378;0.094;2024-03-06T13:54:55;19.23;;;8.63;;
26253;SDS011;53339;51.378;0.094;2024-03-06T13:57:26;21.30;;;8.35;;
26253;SDS011;53339;51.378;0.094;2024-03-06T14:00:03;22.85;;;8.57;;
26253;SDS011;53339;51.378;0.094;2024-03-06T14:02:41;23.85;;;9.32;;
26253;SDS011;53339;51.378;0.094;2024-03-06T14:05:11;20.80;;;9.75;;
26253;SDS011;53339;51.378;0.094;2024-03-06T14:07:44;24.67;;;9.95;;
26253;SDS011;53339;51.378;0.094;2024-03-06T14:10:15;16.90;;;7.55;;
26253;SDS011;53339;51.378;0.094;2024-03-06T14:12:54;15.20;;;7.35;;
26253;SDS011;53339;51.378;0.094;2024-03-06T14:15:26;20.42;;;7.60;;
26253;SDS011;53339;51.378;0.094;2024-03-06T14:17:57;15.60;;;7.10;;
26253;SDS011;53339;51.378;0.094;2024-03-06T14:20:31;12.75;;;6.05;;
26253;SDS011;53339;51.378;0.094;2024-03-06T14:23:02;12.98;;;6.15;;
26253;SDS011;53339;51.378;0.094;2024-03-06T14:25:35;12.38;;;5.95;;
26253;SDS011;53339;51.378;0.094;2024-03-06T14:28:08;12.10;;;5.20;;
26253;SDS011;53339;51.378;0.094;2024-03-06T14:30:37;13.02;;;4.90;;
26253;SDS011;53339;51.378;0.094;2024-03-06T14:33:09;12.98;;;5.43;;
26253;SDS011;53339;51.378;0.094;2024-03-06T14:35:40;12.23;;;5.63;;
26253;SDS011;53339;51.378;0.094;2024-03-06T14:38:09;11.20;;;4.80;;
26253;SDS011;53339;51.378;0.094;2024-03-06T14:40:42;11.10;;;5.32;;
26253;SDS011;53339;51.378;0.094;2024-03-06T14:43:14;10.15;;;5.85;;
26253;SDS011;53339;51.378;0.094;2024-03-06T14:45:45;12.38;;;6.35;;
26253;SDS011;53339;51.378;0.094;2024-03-06T14:48:19;14.15;;;6.03;;
26253;SDS011;53339;51.378;0.094;2024-03-06T14:50:55;14.98;;;6.88;;
26253;SDS011;53339;51.378;0.094;2024-03-06T14:53:25;13.48;;;6.28;;
26253;SDS011;53339;51.378;0.094;2024-03-06T14:55:56;13.70;;;5.97;;
26253;SDS011;53339;51.378;0.094;2024-03-06T14:58:27;13.00;;;6.15;;
26253;SDS011;53339;51.378;0.094;2024-03-06T15:00:57;13.50;;;5.50;;
26253;SDS011;53339;51.378;0.094;2024-03-06T15:03:28;10.52;;;5.15;;
26253;SDS011;53339;51.378;0.094;2024-03-06T15:06:00;13.13;;;6.40;;
26253;SDS011;53339;51.378;0.094;2024-03-06T15:08:31;10.82;;;6.30;;
26253;SDS011;53339;51.378;0.094;2024-03-06T15:11:00;15.73;;;6.43;;
26253;SDS011;53339;51.378;0.094;2024-03-06T15:13:32;12.52;;;5.82;;
26253;SDS011;53339;51.378;0.094;2024-03-06T15:16:03;11.38;;;5.63;;
26253;SDS011;53339;51.378;0.094;2024-03-06T15:18:37;12.32;;;5.20;;
26253;SDS011;53339;51.378;0.094;2024-03-06T15:21:07;10.48;;;5.35;;
26253;SDS011;53339;51.378;0.094;2024-03-06T15:23:38;10.50;;;5.03;;
26253;SDS011;53339;51.378;0.094;2024-03-06T15:26:08;10.48;;;6.00;;